Time;durP1;ratioP1;P1;durP2;ratioP2;P2;SDS_P1;SDS_P2;PMS_P1;PMS_P2;Temp;Humidity;BMP_temperature;BMP_pressure;BME280_temperature;BME280_humidity;BME280_pressure;Samples;Min_cycle;Max_cycle;Signal;HPM_P1;HPM_P2
2023/05/30 00:01:36;;;;;;;4.00;1.30;;;;;;;14.14;47.28;99565.44;5046283;28;20461;-61
2023/05/30 00:04:07;;;;;;;5.10;1.20;;;;;;;14.23;44.96;99557.16;5059375;28;20076;-63
2023/05/30 00:06:37;;;;;;;14.43;1.83;;;;;;;14.24;47.64;99556.22;5043388;28;20048;-60
2023/05/30 00:09:08;;;;;;;6.80;1.30;;;;;;;14.06;46.40;99551.78;5064636;28;20142;-61
2023/05/30 00:11:39;;;;;;;3.63;1.45;;;;;;;14.06;45.18;99562.28;5054224;28;20079;-59
2023/05/30 00:14:10;;;;;;;6.15;1.20;;;;;;;13.71;45.55;99554.09;5065010;28;20054;-59
2023/05/30 00:16:42;;;;;;;3.13;1.27;;;;;;;13.29;44.34;99560.09;5053980;28;20142;-57
2023/05/30 00:19:13;;;;;;;4.80;1.15;;;;;;;13.64;47.51;99560.50;5064699;28;20055;-62
2023/05/30 00:21:45;;;;;;;8.25;2.15;;;;;;;14.09;45.93;99543.75;5032369;28;20048;-61
2023/05/30 00:24:16;;;;;;;1.90;1.00;;;;;;;14.26;46.86;99552.72;5038962;28;20078;-62
2023/05/30 00:26:47;;;;;;;2.38;1.13;;;;;;;13.97;46.53;99546.88;5025512;28;20052;-60
2023/05/30 00:29:17;;;;;;;2.55;0.90;;;;;;;13.86;45.37;99563.09;5036879;28;20040;-67
2023/05/30 00:31:50;;;;;;;2.88;1.02;;;;;;;13.89;44.76;99567.38;5034536;28;20064;-62
2023/05/30 00:34:20;;;;;;;1.55;1.00;;;;;;;13.81;46.58;99546.69;5035515;28;20126;-57
2023/05/30 00:36:51;;;;;;;7.75;1.98;;;;;;;13.91;46.94;99557.66;5052018;28;20688;-61
2023/05/30 00:39:21;;;;;;;1.85;1.20;;;;;;;13.73;44.60;99554.03;5067492;28;20054;-59
2023/05/30 00:41:53;;;;;;;1.67;1.20;;;;;;;13.74;44.95;99546.06;5041829;28;20394;-65
2023/05/30 00:44:24;;;;;;;6.95;1.60;;;;;;;13.90;45.30;99550.69;5043260;28;20056;-64
2023/05/30 00:46:57;;;;;;;4.85;1.30;;;;;;;14.19;46.86;99531.94;5045899;28;20515;-62
2023/05/30 00:49:28;;;;;;;5.30;1.20;;;;;;;14.38;44.94;99534.63;5059905;28;20101;-59
2023/05/30 00:51:59;;;;;;;1.88;1.00;;;;;;;14.20;46.02;99544.16;5063234;28;20109;-62
2023/05/30 00:54:29;;;;;;;3.80;1.50;;;;;;;13.61;47.98;99502.88;5053026;28;20048;-60
2023/05/30 00:57:01;;;;;;;2.38;1.10;;;;;;;13.95;47.69;99532.97;5063901;28;20519;-58
2023/05/30 00:59:32;;;;;;;2.10;1.40;;;;;;;13.99;47.82;99545.06;5054429;28;20066;-62
2023/05/30 01:02:05;;;;;;;5.10;1.40;;;;;;;14.16;47.40;99537.31;5065156;28;20071;-61
2023/05/30 01:04:36;;;;;;;5.03;1.20;;;;;;;13.95;48.23;99543.47;5047007;28;20066;-63
2023/05/30 01:07:10;;;;;;;8.95;2.10;;;;;;;14.10;47.27;99537.56;5063842;28;20043;-61
2023/05/30 01:09:41;;;;;;;3.40;1.50;;;;;;;14.26;44.95;99547.44;5053589;28;20051;-61
2023/05/30 01:12:20;;;;;;;4.13;1.33;;;;;;;14.39;47.83;99538.09;5060705;28;20052;-65
2023/05/30 01:14:59;;;;;;;4.60;1.73;;;;;;;14.54;47.67;99540.09;5053974;28;20052;-58
2023/05/30 01:17:46;;;;;;;1.25;1.15;;;;;;;14.60;45.86;99539.84;5065459;28;20408;-65
2023/05/30 01:20:22;;;;;;;1.73;1.20;;;;;;;14.46;45.81;99518.53;5073054;28;20043;-59
2023/05/30 01:23:15;;;;;;;4.78;1.35;;;;;;;14.29;45.65;99515.78;5033047;28;20487;-62
2023/05/30 01:26:06;;;;;;;8.13;1.27;;;;;;;14.30;45.92;99535.88;5033186;28;20839;-64
2023/05/30 01:28:40;;;;;;;1.83;1.10;;;;;;;14.35;46.13;99520.75;5041527;28;20048;-64
2023/05/30 01:31:11;;;;;;;2.63;1.23;;;;;;;14.33;46.34;99491.09;5051295;28;20056;-60
2023/05/30 01:33:46;;;;;;;3.05;1.30;;;;;;;14.37;45.28;99524.16;5038555;28;20060;-62
2023/05/30 01:36:19;;;;;;;2.47;1.30;;;;;;;14.53;44.27;99524.38;5035528;28;20121;-63
2023/05/30 01:38:50;;;;;;;3.15;1.27;;;;;;;14.47;45.84;99514.97;5028846;28;20056;-64
2023/05/30 01:41:30;;;;;;;2.25;1.13;;;;;;;14.50;44.98;99519.22;5045404;28;20796;-63
2023/05/30 01:44:08;;;;;;;4.83;1.20;;;;;;;14.51;44.19;99516.53;5031418;28;20049;-61
2023/05/30 01:46:40;;;;;;;3.33;1.30;;;;;;;14.69;46.21;99519.31;5037546;28;20282;-62
2023/05/30 01:49:31;;;;;;;6.50;1.47;;;;;;;14.90;43.56;99513.03;5039960;28;20317;-62
2023/05/30 01:52:08;;;;;;;8.47;1.70;;;;;;;14.88;43.60;99496.50;5035844;28;20783;-63
2023/05/30 01:54:42;;;;;;;5.30;1.43;;;;;;;14.84;44.97;99508.94;5028704;28;20279;-67
2023/05/30 01:57:16;;;;;;;1.97;1.10;;;;;;;14.89;43.37;99516.59;5037049;28;20291;-61
2023/05/30 01:59:49;;;;;;;2.60;1.13;;;;;;;14.94;42.61;99514.63;5025863;28;20266;-65
2023/05/30 02:02:19;;;;;;;6.43;1.67;;;;;;;15.01;44.34;99500.25;5032821;28;20326;-66
2023/05/30 02:04:50;;;;;;;1.47;1.10;;;;;;;15.26;43.14;99499.94;5046336;28;20343;-64
2023/05/30 02:07:20;;;;;;;3.10;1.47;;;;;;;15.48;41.88;99497.16;5046283;28;20578;-61
2023/05/30 02:09:51;;;;;;;2.17;1.50;;;;;;;15.19;41.30;99466.09;5041012;28;20411;-63
2023/05/30 02:12:21;;;;;;;3.93;1.43;;;;;;;14.76;41.79;99504.97;5041097;28;20275;-60
2023/05/30 02:14:54;;;;;;;4.60;1.80;;;;;;;15.04;41.88;99500.09;5042899;28;20418;-59
2023/05/30 02:17:25;;;;;;;2.23;1.17;;;;;;;15.36;41.67;99496.88;5046527;28;20703;-60
2023/05/30 02:19:57;;;;;;;2.53;1.50;;;;;;;15.45;42.75;99497.31;5042462;28;20294;-61
2023/05/30 02:22:28;;;;;;;1.73;1.00;;;;;;;15.59;41.24;99495.75;5048576;28;20385;-62
2023/05/30 02:24:58;;;;;;;9.93;1.73;;;;;;;14.93;42.89;99462.94;5055717;28;20278;-64
2023/05/30 02:27:29;;;;;;;3.77;1.10;;;;;;;14.95;40.79;99495.31;5043004;28;20290;-58
2023/05/30 02:30:01;;;;;;;4.43;1.20;;;;;;;15.23;42.58;99494.00;5054369;28;20282;-59
2023/05/30 02:32:32;;;;;;;5.30;1.33;;;;;;;15.47;40.41;99492.78;5050377;28;20359;-59
2023/05/30 02:35:02;;;;;;;4.67;1.33;;;;;;;15.60;41.04;99486.91;5051206;28;20281;-63
2023/05/30 02:37:33;;;;;;;7.57;1.53;;;;;;;15.35;39.76;99480.25;5049872;28;20294;-62
2023/05/30 02:40:04;;;;;;;3.93;1.40;;;;;;;15.31;40.03;99481.31;5053070;28;20665;-60
2023/05/30 02:42:35;;;;;;;14.73;1.50;;;;;;;15.57;41.18;99473.91;5040119;28;20378;-63
2023/05/30 02:45:09;;;;;;;8.43;1.53;;;;;;;15.66;39.42;99470.84;5053401;28;20283;-62
2023/05/30 02:47:41;;;;;;;15.77;1.63;;;;;;;15.20;41.00;99483.59;5042443;28;20291;-61
2023/05/30 02:50:12;;;;;;;3.17;1.20;;;;;;;15.13;39.59;99482.22;5062214;28;20293;-59
2023/05/30 02:52:42;;;;;;;2.47;1.20;;;;;;;15.04;39.12;99484.31;5026450;28;20293;-61
2023/05/30 02:55:13;;;;;;;4.37;1.50;;;;;;;14.93;40.18;99486.63;5040273;28;20318;-61
2023/05/30 02:57:44;;;;;;;6.57;1.60;;;;;;;15.18;40.67;99469.69;5039608;28;20393;-61
2023/05/30 03:00:17;;;;;;;5.00;1.23;;;;;;;15.18;39.73;99474.94;5050987;28;20310;-61
2023/05/30 03:02:48;;;;;;;3.63;1.33;;;;;;;15.36;38.69;99468.78;5043032;28;20299;-61
2023/05/30 03:05:19;;;;;;;4.50;1.03;;;;;;;14.90;37.50;99486.75;5061302;28;20341;-61
2023/05/30 03:07:51;;;;;;;4.53;1.20;;;;;;;14.90;38.89;99476.22;5035847;28;21572;-62
2023/05/30 03:10:22;;;;;;;3.73;1.60;;;;;;;15.29;39.17;99477.91;5057638;28;20387;-61
2023/05/30 03:12:52;;;;;;;7.73;1.17;;;;;;;15.36;40.11;99463.50;5037679;28;20274;-64
2023/05/30 03:15:26;;;;;;;2.80;1.10;;;;;;;15.24;38.86;99464.09;5053677;28;20278;-61
2023/05/30 03:17:58;;;;;;;9.13;1.80;;;;;;;15.35;40.09;99450.41;5043551;28;20444;-61
2023/05/30 03:20:31;;;;;;;2.73;1.37;;;;;;;15.34;37.62;99449.56;5037464;28;20291;-59
2023/05/30 03:23:02;;;;;;;4.37;1.40;;;;;;;15.36;38.17;99468.78;5061164;28;20741;-60
2023/05/30 03:25:32;;;;;;;3.27;1.50;;;;;;;15.29;38.56;99456.84;5037248;28;20293;-63
2023/05/30 03:28:06;;;;;;;2.77;1.20;;;;;;;15.23;37.62;99468.53;5054049;28;20286;-62
2023/05/30 03:30:38;;;;;;;2.93;1.17;;;;;;;15.37;38.94;99459.94;5033434;28;20275;-61
2023/05/30 03:33:08;;;;;;;1.87;0.90;;;;;;;15.61;37.80;99465.78;5045447;28;20282;-62
2023/05/30 03:35:39;;;;;;;3.80;1.10;;;;;;;15.43;38.28;99443.88;5040944;28;20352;-60
2023/05/30 03:38:13;;;;;;;4.60;1.20;;;;;;;15.28;36.95;99463.03;5060652;28;21533;-60
2023/05/30 03:40:43;;;;;;;4.50;1.50;;;;;;;15.34;39.26;99454.84;5032702;28;20309;-62
2023/05/30 03:43:14;;;;;;;5.80;1.40;;;;;;;15.54;38.84;99473.13;5054513;28;20135;-61
2023/05/30 03:45:46;;;;;;;1.50;1.20;;;;;;;15.57;39.11;99455.47;5036948;28;21023;-64
2023/05/30 03:48:17;;;;;;;4.80;1.40;;;;;;;15.56;38.17;99469.59;5052505;28;20289;-60
2023/05/30 03:50:47;;;;;;;2.90;1.40;;;;;;;15.35;36.73;99461.81;5044920;28;20338;-64
2023/05/30 03:53:19;;;;;;;1.77;1.13;;;;;;;14.98;36.83;99458.31;5048882;28;20349;-60
2023/05/30 03:55:49;;;;;;;13.47;1.80;;;;;;;15.02;39.06;99478.28;5034910;28;20680;-60
2023/05/30 03:58:20;;;;;;;2.70;0.97;;;;;;;15.14;37.58;99462.84;5056566;28;20333;-60
2023/05/30 04:00:52;;;;;;;1.60;1.30;;;;;;;15.22;37.36;99472.06;5036909;28;20282;-59
2023/05/30 04:03:23;;;;;;;4.65;1.38;;;;;;;15.03;36.37;99414.22;5052431;28;20428;-63
2023/05/30 04:05:54;;;;;;;1.97;1.20;;;;;;;15.39;38.06;99463.34;5038649;28;20471;-62
2023/05/30 04:08:24;;;;;;;1.33;1.00;;;;;;;15.34;36.89;99460.09;5055733;28;20479;-59
2023/05/30 04:10:55;;;;;;;2.77;1.07;;;;;;;15.08;37.61;99470.09;5024588;28;20604;-61
2023/05/30 04:13:26;;;;;;;5.53;1.03;;;;;;;15.15;36.80;99475.06;5034475;28;20400;-60
2023/05/30 04:15:58;;;;;;;2.67;1.13;;;;;;;15.04;35.90;99458.00;5036442;28;20638;-61
2023/05/30 04:18:29;;;;;;;2.73;1.23;;;;;;;14.99;37.49;99460.00;5043722;28;20305;-61
2023/05/30 04:21:00;;;;;;;4.07;1.25;;;;;;;14.95;37.04;99479.50;5052025;28;20294;-60
2023/05/30 04:23:31;;;;;;;2.65;1.30;;;;;;;14.84;38.03;99477.38;5039297;28;20522;-60
2023/05/30 04:26:04;;;;;;;2.53;1.40;;;;;;;15.07;37.96;99484.16;5060155;28;20048;-60
2023/05/30 04:28:36;;;;;;;1.80;0.90;;;;;;;15.25;35.72;99476.31;5035523;28;20292;-60
2023/05/30 04:31:08;;;;;;;4.30;1.23;;;;;;;14.79;35.99;99483.78;5053839;28;20315;-60
2023/05/30 04:33:51;;;;;;;1.98;1.20;;;;;;;14.76;38.25;99478.66;5035761;28;20315;-59
2023/05/30 04:36:21;;;;;;;2.47;1.10;;;;;;;14.43;37.27;99445.06;5051360;28;20055;-59
2023/05/30 04:38:53;;;;;;;3.40;1.23;;;;;;;14.76;37.01;99473.41;5038628;28;20045;-59
2023/05/30 04:41:25;;;;;;;3.70;1.33;;;;;;;14.59;37.79;99482.91;5043685;28;20314;-62
2023/05/30 04:43:57;;;;;;;2.27;1.40;;;;;;;14.30;38.16;99471.03;5049051;28;20060;-62
2023/05/30 04:46:29;;;;;;;5.13;1.17;;;;;;;14.30;38.25;99470.16;5045403;28;20286;-60
2023/05/30 04:49:01;;;;;;;2.28;1.10;;;;;;;14.16;35.93;99453.25;5052541;28;20096;-61
2023/05/30 04:51:32;;;;;;;1.52;1.25;;;;;;;14.29;36.47;99484.25;5035903;28;20046;-59
2023/05/30 04:54:03;;;;;;;4.90;1.13;;;;;;;14.30;37.80;99478.06;5048325;28;20079;-61
2023/05/30 04:56:34;;;;;;;3.10;1.20;;;;;;;14.21;36.42;99477.53;5045529;28;20135;-60
2023/05/30 04:59:05;;;;;;;4.90;1.00;;;;;;;14.11;38.17;99471.00;5048171;28;20044;-61
2023/05/30 05:01:37;;;;;;;3.15;1.42;;;;;;;13.93;37.83;99450.78;5047335;28;20058;-62
2023/05/30 05:04:11;;;;;;;6.80;1.20;;;;;;;14.03;39.25;99473.94;5046679;28;20481;-61
2023/05/30 05:06:42;;;;;;;4.40;1.38;;;;;;;13.96;37.81;99467.25;5040687;28;20155;-62
2023/05/30 05:09:13;;;;;;;5.47;1.20;;;;;;;13.82;38.76;99459.94;5049873;28;20053;-63
2023/05/30 05:11:43;;;;;;;2.60;1.30;;;;;;;13.67;38.75;99457.13;5040084;28;20562;-59
2023/05/30 05:14:14;;;;;;;4.28;1.40;;;;;;;13.25;37.77;99427.31;5059893;28;20048;-59
2023/05/30 05:16:46;;;;;;;2.70;1.10;;;;;;;13.43;39.05;99456.34;5033005;28;20048;-59
2023/05/30 05:19:17;;;;;;;3.53;1.20;;;;;;;13.32;38.85;99460.28;5055098;28;20539;-60
2023/05/30 05:21:48;;;;;;;5.25;1.50;;;;;;;13.17;39.93;99455.63;5035692;28;20447;-60
2023/05/30 05:24:18;;;;;;;3.30;1.67;;;;;;;13.11;40.15;99455.88;5051195;28;20611;-63
2023/05/30 05:26:49;;;;;;;2.30;1.20;;;;;;;13.03;40.23;99452.69;5043123;28;20474;-59
2023/05/30 05:29:20;;;;;;;2.22;1.13;;;;;;;12.95;40.49;99469.59;5048209;28;20056;-59
2023/05/30 05:31:53;;;;;;;2.03;1.15;;;;;;;12.97;41.43;99464.28;5033528;28;20127;-61
2023/05/30 05:34:25;;;;;;;7.50;1.60;;;;;;;12.88;40.99;99460.25;5055442;28;20547;-60
2023/05/30 05:36:56;;;;;;;3.35;1.20;;;;;;;12.96;41.05;99462.56;5035633;28;20079;-63
2023/05/30 05:39:28;;;;;;;2.72;1.17;;;;;;;13.08;41.69;99445.47;5050609;28;20543;-60
2023/05/30 05:41:59;;;;;;;4.22;1.33;;;;;;;13.15;40.78;99452.19;5041103;28;20053;-60
2023/05/30 05:44:31;;;;;;;1.92;1.48;;;;;;;13.27;42.47;99461.38;5038152;28;20084;-60
2023/05/30 05:47:04;;;;;;;2.70;1.20;;;;;;;13.45;42.40;99467.66;5059143;28;20566;-59
2023/05/30 05:49:34;;;;;;;4.85;1.60;;;;;;;13.45;40.96;99478.16;5034393;28;20789;-57
2023/05/30 05:52:07;;;;;;;1.67;1.08;;;;;;;13.27;41.59;99467.47;5052392;28;20361;-59
2023/05/30 05:54:37;;;;;;;1.75;1.30;;;;;;;13.20;43.34;99460.75;5038311;28;20044;-60
2023/05/30 05:57:08;;;;;;;1.40;1.15;;;;;;;13.18;42.52;99462.59;5055077;28;20071;-60
2023/05/30 05:59:39;;;;;;;5.55;1.33;;;;;;;13.13;43.31;99469.78;5048761;28;20089;-60
2023/05/30 06:02:11;;;;;;;3.17;1.20;;;;;;;13.07;44.05;99449.88;5051699;28;20394;-59
2023/05/30 06:04:42;;;;;;;4.65;1.60;;;;;;;13.10;44.31;99459.41;5049326;28;20086;-60
2023/05/30 06:07:13;;;;;;;8.25;1.73;;;;;;;12.89;43.80;99466.34;5049168;28;20135;-60
2023/05/30 06:09:43;;;;;;;4.72;1.40;;;;;;;12.74;43.64;99473.88;5044325;28;20056;-59
2023/05/30 06:12:15;;;;;;;5.60;1.50;;;;;;;12.80;44.77;99483.25;5047175;28;20076;-60
2023/05/30 06:14:46;;;;;;;4.28;1.50;;;;;;;12.81;44.35;99485.00;5023329;28;20133;-59
2023/05/30 06:17:19;;;;;;;5.10;1.50;;;;;;;12.84;43.62;99489.25;5042444;28;20102;-60
2023/05/30 06:20:03;;;;;;;2.38;1.50;;;;;;;12.76;43.56;99486.94;5012046;28;20058;-61
2023/05/30 06:22:34;;;;;;;1.77;1.38;;;;;;;12.84;45.01;99494.50;5016386;28;20083;-60
2023/05/30 06:25:05;;;;;;;6.80;1.60;;;;;;;12.82;44.45;99491.94;5036241;28;20076;-61
2023/05/30 06:27:36;;;;;;;4.13;1.30;;;;;;;12.79;44.70;99492.06;5019086;28;20045;-59
2023/05/30 06:30:09;;;;;;;3.38;1.40;;;;;;;12.75;44.58;99495.69;5034279;28;20040;-61
2023/05/30 06:32:42;;;;;;;3.80;1.40;;;;;;;12.76;44.49;99488.72;5029249;28;20474;-61
2023/05/30 06:35:13;;;;;;;12.77;2.25;;;;;;;12.72;45.00;99490.56;5030563;28;20541;-60
2023/05/30 06:37:45;;;;;;;4.82;1.52;;;;;;;12.73;44.44;99497.53;5030847;28;20052;-61
2023/05/30 06:40:16;;;;;;;6.63;1.40;;;;;;;12.77;44.61;99503.50;5025918;28;20049;-60
2023/05/30 06:42:47;;;;;;;4.88;1.65;;;;;;;12.68;45.24;99508.19;5015102;28;20053;-61
2023/05/30 06:45:18;;;;;;;8.90;1.90;;;;;;;12.58;44.50;99498.09;5030300;28;20070;-60
2023/05/30 06:47:53;;;;;;;3.90;1.83;;;;;;;12.59;44.86;99510.28;5013935;28;20051;-59
2023/05/30 06:50:26;;;;;;;6.85;1.40;;;;;;;12.39;44.19;99519.72;5028892;28;20055;-59
2023/05/30 06:52:57;;;;;;;7.20;1.50;;;;;;;12.34;45.09;99520.81;5011625;28;20071;-58
2023/05/30 06:55:28;;;;;;;5.05;1.60;;;;;;;12.27;45.31;99514.91;5014358;28;20128;-59
2023/05/30 06:57:59;;;;;;;4.40;1.50;;;;;;;12.17;45.59;99529.25;5028687;28;20135;-63
2023/05/30 07:00:29;;;;;;;3.00;1.60;;;;;;;12.13;45.65;99522.41;5023832;28;20076;-59
2023/05/30 07:03:02;;;;;;;2.67;1.13;;;;;;;12.14;44.74;99508.41;5034208;28;20048;-60
2023/05/30 07:05:33;;;;;;;5.63;1.67;;;;;;;12.11;45.53;99529.47;5020409;28;20049;-59
2023/05/30 07:08:03;;;;;;;3.63;1.63;;;;;;;12.03;46.55;99517.50;5042079;28;20691;-59
2023/05/30 07:10:34;;;;;;;5.82;1.45;;;;;;;12.02;46.17;99534.09;5017175;28;21038;-61
2023/05/30 07:13:05;;;;;;;7.20;1.67;;;;;;;11.81;46.33;99513.88;5035126;28;20052;-59
2023/05/30 07:15:37;;;;;;;2.35;1.50;;;;;;;11.92;45.78;99535.31;5018384;28;20160;-58
2023/05/30 07:18:11;;;;;;;5.60;1.45;;;;;;;11.85;46.65;99528.53;5033529;28;20056;-60
2023/05/30 07:20:41;;;;;;;11.23;1.80;;;;;;;11.94;46.92;99533.50;5026640;28;20048;-61
2023/05/30 07:23:14;;;;;;;3.85;1.35;;;;;;;11.67;46.25;99490.75;5029793;28;20114;-60
2023/05/30 07:25:46;;;;;;;4.38;1.90;;;;;;;11.96;46.67;99542.16;5029645;28;20052;-62
2023/05/30 07:28:22;;;;;;;2.17;1.48;;;;;;;11.99;46.19;99547.31;5028407;28;20545;-61
2023/05/30 07:30:52;;;;;;;1.95;1.27;;;;;;;11.85;45.23;99549.47;5011530;28;20130;-59
2023/05/30 07:33:35;;;;;;;3.05;1.60;;;;;;;11.64;46.15;99551.91;5021352;28;20508;-61
2023/05/30 07:36:06;;;;;;;3.47;1.60;;;;;;;11.57;46.33;99560.00;5021523;28;20053;-60
2023/05/30 07:38:36;;;;;;;4.15;1.50;;;;;;;11.44;45.73;99556.91;5020733;28;20803;-59
2023/05/30 07:41:07;;;;;;;10.65;1.65;;;;;;;11.44;46.57;99549.91;5040934;28;20143;-59
2023/05/30 07:43:45;;;;;;;4.43;1.73;;;;;;;11.45;46.85;99569.06;5016308;28;20155;-61
2023/05/30 07:46:25;;;;;;;4.40;1.50;;;;;;;11.18;46.30;99527.19;5035409;28;20724;-61
2023/05/30 07:49:00;;;;;;;3.65;1.42;;;;;;;11.42;46.08;99550.88;5018123;28;20872;-59
2023/05/30 07:51:39;;;;;;;1.60;1.30;;;;;;;11.42;46.07;99561.31;5022134;28;20513;-59
2023/05/30 07:54:17;;;;;;;2.55;1.38;;;;;;;11.45;46.29;99561.22;5029602;28;20451;-61
2023/05/30 07:56:47;;;;;;;3.15;1.50;;;;;;;11.57;46.51;99554.75;5021894;28;20065;-60
2023/05/30 07:59:18;;;;;;;8.95;1.73;;;;;;;11.65;46.18;99553.59;5040610;28;20044;-59
2023/05/30 08:01:49;;;;;;;4.50;1.85;;;;;;;11.75;46.09;99553.31;5029383;28;20473;-61
2023/05/30 08:04:21;;;;;;;7.53;1.73;;;;;;;11.78;46.62;99553.19;5029380;28;20048;-60
2023/05/30 08:06:52;;;;;;;3.97;1.42;;;;;;;11.76;45.67;99549.81;5013336;28;20045;-59
2023/05/30 08:09:23;;;;;;;3.85;1.30;;;;;;;11.88;46.20;99562.50;5030682;28;20075;-61
2023/05/30 08:11:53;;;;;;;3.20;1.30;;;;;;;11.93;46.48;99547.50;5008321;28;20137;-61
2023/05/30 08:14:24;;;;;;;4.65;1.50;;;;;;;11.53;45.59;99443.25;5024231;28;20053;-60
2023/05/30 08:16:55;;;;;;;4.80;2.00;;;;;;;12.58;45.58;99574.09;5015724;28;20452;-59
2023/05/30 08:19:27;;;;;;;3.05;1.30;;;;;;;12.46;44.87;99542.19;5027218;28;20057;-59
2023/05/30 08:22:00;;;;;;;7.28;1.70;;;;;;;12.85;44.83;99575.72;5020297;28;20495;-60
2023/05/30 08:24:30;;;;;;;5.45;1.42;;;;;;;12.91;44.04;99570.25;5022385;28;20057;-60
2023/05/30 08:27:01;;;;;;;5.13;1.73;;;;;;;12.90;44.05;99568.56;5032532;28;20155;-61
2023/05/30 08:29:33;;;;;;;3.03;1.35;;;;;;;12.55;44.31;99519.16;5019644;28;20482;-61
2023/05/30 08:32:04;;;;;;;6.10;1.42;;;;;;;12.89;44.76;99571.22;5040492;28;20048;-61
2023/05/30 08:34:38;;;;;;;6.90;1.50;;;;;;;12.79;43.52;99569.84;5011398;28;20048;-59
2023/05/30 08:37:10;;;;;;;5.78;1.65;;;;;;;12.69;44.65;99585.06;5034792;28;20147;-59
2023/05/30 08:39:41;;;;;;;7.47;1.58;;;;;;;12.48;44.91;99587.53;5016788;28;20488;-61
2023/05/30 08:42:13;;;;;;;5.05;1.70;;;;;;;12.36;45.36;99587.97;5032112;28;20091;-60
2023/05/30 08:44:44;;;;;;;12.60;1.98;;;;;;;12.21;44.77;99593.72;5024829;28;20143;-61
2023/05/30 08:47:17;;;;;;;4.47;2.08;;;;;;;11.94;46.22;99591.09;5028796;28;20055;-61
2023/05/30 08:49:53;;;;;;;2.03;1.00;;;;;;;11.82;46.29;99601.94;5016504;28;20452;-61
2023/05/30 08:52:29;;;;;;;3.50;1.50;;;;;;;11.83;47.06;99593.16;5028239;28;20482;-61
2023/05/30 08:55:08;;;;;;;10.52;1.48;;;;;;;11.82;46.81;99594.09;5011523;28;20083;-62
2023/05/30 08:57:45;;;;;;;9.77;1.75;;;;;;;11.58;47.04;99561.69;5021834;28;20036;-60
2023/05/30 09:00:17;;;;;;;4.70;1.77;;;;;;;11.91;47.51;99601.69;5028355;28;20121;-62
2023/05/30 09:03:12;;;;;;;8.43;1.60;;;;;;;11.79;46.99;99586.34;5027303;28;20053;-62
2023/05/30 09:06:13;;;;;;;4.15;1.60;;;;;;;11.92;47.70;99613.84;5007371;28;20049;-62
2023/05/30 09:11:33;;;;;;;7.53;1.98;;;;;;;11.92;48.27;99613.84;5001577;28;20262;-61
2023/05/30 09:14:10;;;;;;;2.40;1.58;;;;;;;11.92;48.56;99607.78;5028923;28;20151;-60
2023/05/30 09:16:43;;;;;;;4.05;1.85;;;;;;;11.95;49.21;99624.22;5019611;28;20044;-60
2023/05/30 09:19:14;;;;;;;8.20;1.95;;;;;;;11.99;49.78;99615.38;5029598;28;20083;-61
2023/05/30 09:21:55;;;;;;;3.72;1.98;;;;;;;11.94;49.86;99606.81;5020283;28;20073;-62
2023/05/30 09:24:56;;;;;;;7.50;2.30;;;;;;;11.88;50.72;99617.47;5025652;28;20049;-60
2023/05/30 09:27:30;;;;;;;5.70;1.98;;;;;;;11.84;50.84;99621.94;5016643;28;20049;-60
2023/05/30 09:30:12;;;;;;;4.38;2.13;;;;;;;11.38;50.76;99549.22;5032837;28;20071;-61
2023/05/30 09:33:01;;;;;;;3.47;2.05;;;;;;;11.68;51.20;99614.59;5025546;28;20072;-62
2023/05/30 09:35:34;;;;;;;4.20;2.10;;;;;;;11.76;51.35;99628.31;5030730;28;20056;-62
2023/05/30 09:38:13;;;;;;;11.38;2.85;;;;;;;11.72;50.83;99582.19;5032770;28;20134;-62
2023/05/30 09:40:53;;;;;;;;;;;;;;;12.15;49.90;99628.81;5017457;28;20049;-62
2023/05/30 09:43:36;;;;;;;9.80;3.40;;;;;;;12.32;50.54;99625.63;5037675;28;20616;-63
2023/05/30 09:46:09;;;;;;;9.80;2.55;;;;;;;12.41;50.47;99627.97;5013917;28;20075;-61
2023/05/30 09:48:44;;;;;;;8.75;3.17;;;;;;;12.32;50.37;99628.25;5025060;28;20664;-61
2023/05/30 09:51:18;;;;;;;5.80;2.83;;;;;;;12.18;50.39;99630.47;5029883;28;20053;-61
2023/05/30 09:54:00;;;;;;;8.70;3.80;;;;;;;12.02;50.79;99615.25;5024831;28;20042;-61
2023/05/30 09:56:38;;;;;;;3.92;2.15;;;;;;;12.04;50.22;99628.31;5022508;28;20407;-60
2023/05/30 09:59:40;;;;;;;6.28;2.50;;;;;;;11.90;49.67;99639.22;5028703;28;20119;-62
2023/05/30 10:02:13;;;;;;;7.03;2.58;;;;;;;11.33;50.79;99587.75;5028459;28;20044;-61
2023/05/30 10:04:45;;;;;;;6.50;2.72;;;;;;;11.30;51.42;99619.25;5016645;28;20447;-60
2023/05/30 10:07:21;;;;;;;6.43;2.40;;;;;;;11.04;52.11;99633.94;5039288;28;20057;-60
2023/05/30 10:10:17;;;;;;;7.57;2.60;;;;;;;10.86;52.86;99629.19;5010958;28;20056;-61
2023/05/30 10:12:54;;;;;;;6.30;2.85;;;;;;;10.76;53.54;99639.94;5014952;28;20145;-61
2023/05/30 10:15:39;;;;;;;6.95;3.45;;;;;;;10.70;53.66;99645.31;5029279;28;20090;-61
2023/05/30 10:18:16;;;;;;;11.20;3.20;;;;;;;10.57;54.93;99646.53;5021720;28;20055;-61
2023/05/30 10:20:54;;;;;;;8.77;3.60;;;;;;;10.19;54.89;99595.28;5027892;28;20407;-61
2023/05/30 10:23:25;;;;;;;10.30;3.78;;;;;;;10.39;55.58;99644.41;5023683;28;20085;-62
2023/05/30 10:26:04;;;;;;;9.13;3.05;;;;;;;10.25;55.36;99624.66;5027924;28;20071;-61
2023/05/30 10:28:44;;;;;;;8.43;3.88;;;;;;;10.27;56.51;99641.16;5020906;28;20080;-61
2023/05/30 10:31:31;;;;;;;15.77;4.85;;;;;;;10.12;57.45;99625.88;5036950;28;20060;-60
2023/05/30 10:34:14;;;;;;;8.93;3.42;;;;;;;9.76;58.16;99585.88;5030229;28;20067;-61
2023/05/30 10:36:45;;;;;;;15.68;3.15;;;;;;;9.87;58.13;99631.69;5024110;28;20040;-60
2023/05/30 10:39:30;;;;;;;7.03;2.60;;;;;;;9.77;58.98;99632.81;5030713;28;20057;-61
2023/05/30 10:42:21;;;;;;;5.22;2.53;;;;;;;9.53;59.74;99625.53;5017984;28;20045;-58
2023/05/30 10:45:15;;;;;;;8.00;2.42;;;;;;;9.32;60.47;99643.38;5023948;28;20099;-61
2023/05/30 10:47:58;;;;;;;13.68;2.92;;;;;;;8.96;61.56;99643.25;5019535;28;20053;-60
2023/05/30 10:50:43;;;;;;;6.10;3.03;;;;;;;8.15;62.56;99540.56;5030504;28;20049;-60
2023/05/30 10:53:18;;;;;;;8.43;3.50;;;;;;;8.59;63.66;99625.69;5024175;28;20853;-62
2023/05/30 10:55:51;;;;;;;15.18;3.70;;;;;;;8.52;63.90;99644.06;5014866;28;20061;-61
2023/05/30 10:58:43;;;;;;;14.00;6.50;;;;;;;8.21;64.96;99616.78;5029178;28;20131;-59
2023/05/30 11:01:29;;;;;;;15.38;6.22;;;;;;;8.29;66.20;99631.44;5006655;28;20037;-62
2023/05/30 11:04:03;;;;;;;12.80;5.93;;;;;;;8.15;66.17;99629.91;5012977;28;20510;-61
2023/05/30 11:06:37;;;;;;;18.02;9.23;;;;;;;7.85;67.05;99635.59;5020641;28;20603;-61
2023/05/30 11:09:14;;;;;;;15.88;8.50;;;;;;;7.75;67.80;99645.28;5031700;28;20093;-61
2023/05/30 11:11:49;;;;;;;36.15;27.27;;;;;;;7.54;68.61;99604.84;5022282;28;20049;-60
2023/05/30 11:14:29;;;;;;;26.05;19.23;;;;;;;7.37;69.06;99593.84;5041024;28;20040;-60
2023/05/30 11:17:08;;;;;;;16.15;11.60;;;;;;;7.67;69.63;99648.00;5017979;28;20048;-60
2023/05/30 11:19:44;;;;;;;5.78;3.67;;;;;;;7.53;69.61;99642.13;5015090;28;20098;-60
2023/05/30 11:22:19;;;;;;;4.53;3.00;;;;;;;7.46;69.81;99653.47;5036930;28;20056;-60
2023/05/30 11:25:28;;;;;;;2.95;1.90;;;;;;;7.39;69.86;99651.84;5017752;28;20052;-61
2023/05/30 11:28:13;;;;;;;5.53;2.40;;;;;;;6.86;70.29;99610.94;5011816;28;20048;-60
2023/05/30 11:30:51;;;;;;;11.20;5.70;;;;;;;6.74;70.83;99600.69;5006496;28;20061;-61
2023/05/30 11:33:27;;;;;;;;;;;;;;;7.03;71.60;99659.22;5029983;28;20105;-61
2023/05/30 11:35:58;;;;;;;21.00;12.18;;;;;;;6.97;72.03;99659.31;5023209;28;19916;-61
2023/05/30 11:38:31;;;;;;;9.07;7.53;;;;;;;6.86;72.67;99660.28;5019871;28;20068;-61
2023/05/30 11:41:22;;;;;;;7.30;4.53;;;;;;;6.71;72.68;99663.03;5039572;28;20044;-60
2023/05/30 11:43:53;;;;;;;4.28;2.40;;;;;;;6.60;72.96;99664.88;5003046;28;20068;-61
2023/05/30 11:46:27;;;;;;;7.18;2.90;;;;;;;6.52;72.86;99661.50;5018810;28;20461;-60
2023/05/30 11:49:00;;;;;;;16.73;11.05;;;;;;;6.48;73.20;99661.50;5003566;28;20599;-60
2023/05/30 11:51:33;;;;;;;28.00;16.70;;;;;;;6.52;73.04;99656.31;5016544;28;20712;-60
2023/05/30 11:54:04;;;;;;;21.88;13.88;;;;;;;6.44;73.54;99651.16;5025257;28;20136;-61
2023/05/30 11:56:38;;;;;;;41.75;26.38;;;;;;;6.17;73.99;99639.31;5017435;28;20052;-60
2023/05/30 11:59:10;;;;;;;11.77;5.85;;;;;;;5.98;74.73;99667.97;5029129;28;20139;-60
2023/05/30 12:01:43;;;;;;;7.03;2.60;;;;;;;5.89;75.30;99649.00;5015679;28;20056;-60
2023/05/30 12:04:16;;;;;;;4.75;2.15;;;;;;;5.78;75.61;99647.34;5035733;28;20052;-60
2023/05/30 12:06:48;;;;;;;2.35;1.67;;;;;;;5.76;75.62;99653.41;5017366;28;20049;-60
2023/05/30 12:09:21;;;;;;;3.65;1.80;;;;;;;5.69;76.05;99646.53;5022991;28;20337;-59